Ashford, Washington
Current Conditions -  °F | °C
As of 2:58 AM on Thursday 18 Dec 2014 (Local Time) from KGRF Reporting Station
Drizzle Drizzle  
Wind Chill: 42°   Ceiling: 5500
Heat Index: 44°   Visibility: 10mi
Dew Point: 44°   Wind: 5mph
Humidity: 100%   Direction: 130°SE
Pressure: 29.95"   Gusts: NA
Location:  46.76°N, 122.03°W
Report Text: KGRF 181058Z AUTO 13004KT 10SM DZ SCT041 OVC055 07/07 A2995 RMK AO2 SLP147 P0000 T00670067 $
Loading
Personal Weather Stations






























Interactive Weather Map New forecast layout! Learn more

10-Day Weather Forecast

Advertisements
Track Severe Weather on mobile